sensor_id;sensor_type;location;lat;lon;timestamp;pressure;altitude;pressure_sealevel;temperature;humidity
69524;BME280;56723;42.694;23.286;2023-02-05T07:26:34;95501.75;;;-5.76;100.00
69524;BME280;56723;42.694;23.286;2023-02-05T07:29:02;95498.09;;;-5.69;100.00
69524;BME280;56723;42.694;23.286;2023-02-05T07:31:29;95511.16;;;-5.58;100.00
69524;BME280;56723;42.694;23.286;2023-02-05T07:33:56;95506.69;;;-5.51;100.00
69524;BME280;56723;42.694;23.286;2023-02-05T07:36:23;95509.06;;;-5.47;100.00
69524;BME280;56723;42.694;23.286;2023-02-05T07:38:50;95520.66;;;-5.41;100.00
69524;BME280;56723;42.694;23.286;2023-02-05T08:27:32;95564.53;;;-4.78;100.00
69524;BME280;56723;42.694;23.286;2023-02-05T08:29:59;95558.19;;;-4.67;100.00
69524;BME280;56723;42.694;23.286;2023-02-05T08:32:26;95555.91;;;-4.53;100.00
69524;BME280;56723;42.694;23.286;2023-02-05T08:34:53;95557.44;;;-4.48;95.99
69524;BME280;56723;42.694;23.286;2023-02-05T08:37:20;95562.69;;;-4.33;94.83
69524;BME280;56723;42.694;23.286;2023-02-05T08:39:46;95553.84;;;-4.23;90.83
69524;BME280;56723;42.694;23.286;2023-02-05T08:42:15;95559.59;;;-4.19;88.77
69524;BME280;56723;42.694;23.286;2023-02-05T08:44:42;95557.59;;;-4.11;87.98
69524;BME280;56723;42.694;23.286;2023-02-05T08:47:09;95558.56;;;-3.95;87.66
69524;BME280;56723;42.694;23.286;2023-02-05T08:49:36;95552.75;;;-3.97;83.67
69524;BME280;56723;42.694;23.286;2023-02-05T08:52:03;95559.00;;;-3.85;82.42
69524;BME280;56723;42.694;23.286;2023-02-05T08:54:30;95556.84;;;-3.74;81.57
69524;BME280;56723;42.694;23.286;2023-02-05T08:56:57;95564.84;;;-3.64;79.45
69524;BME280;56723;42.694;23.286;2023-02-05T08:59:24;95567.63;;;-3.70;77.69
69524;BME280;56723;42.694;23.286;2023-02-05T09:01:51;95584.34;;;-3.66;77.96
69524;BME280;56723;42.694;23.286;2023-02-05T09:04:20;95583.13;;;-3.58;78.53
69524;BME280;56723;42.694;23.286;2023-02-05T09:06:48;95580.31;;;-3.52;74.93
69524;BME280;56723;42.694;23.286;2023-02-05T09:09:15;95574.53;;;-3.54;74.58
69524;BME280;56723;42.694;23.286;2023-02-05T09:11:42;95582.03;;;-3.52;74.72
69524;BME280;56723;42.694;23.286;2023-02-05T09:14:11;95589.25;;;-3.43;73.79
69524;BME280;56723;42.694;23.286;2023-02-05T09:16:39;95590.31;;;-3.49;71.18
69524;BME280;56723;42.694;23.286;2023-02-05T09:19:06;95590.31;;;-3.49;72.21
69524;BME280;56723;42.694;23.286;2023-02-05T09:21:33;95600.97;;;-3.40;72.16
69524;BME280;56723;42.694;23.286;2023-02-05T09:24:00;95592.81;;;-3.28;74.23
69524;BME280;56723;42.694;23.286;2023-02-05T09:26:27;95583.44;;;-3.26;73.23
69524;BME280;56723;42.694;23.286;2023-02-05T09:28:54;95602.47;;;-3.18;70.30
69524;BME280;56723;42.694;23.286;2023-02-05T09:31:21;95588.28;;;-3.22;70.84
69524;BME280;56723;42.694;23.286;2023-02-05T09:33:48;95603.25;;;-3.16;69.00
69524;BME280;56723;42.694;23.286;2023-02-05T09:36:16;95606.56;;;-3.15;69.20
69524;BME280;56723;42.694;23.286;2023-02-05T09:38:44;95605.84;;;-3.17;67.84
69524;BME280;56723;42.694;23.286;2023-02-05T09:52:28;95615.56;;;-3.08;70.90
69524;BME280;56723;42.694;23.286;2023-02-05T09:55:02;95597.75;;;-3.06;69.54
69524;BME280;56723;42.694;23.286;2023-02-05T09:57:36;95603.06;;;-3.13;66.48
69524;BME280;56723;42.694;23.286;2023-02-05T10:02:49;95588.56;;;-3.28;70.38
69524;BME280;56723;42.694;23.286;2023-02-05T10:05:20;95597.53;;;-3.21;69.95
69524;BME280;56723;42.694;23.286;2023-02-05T10:10:43;95605.34;;;-3.25;68.23
69524;BME280;56723;42.694;23.286;2023-02-05T10:27:03;95601.66;;;-3.37;68.61
69524;BME280;56723;42.694;23.286;2023-02-05T10:29:41;95606.44;;;-3.31;68.26
69524;BME280;56723;42.694;23.286;2023-02-05T10:35:21;95613.66;;;-3.61;65.85
69524;BME280;56723;42.694;23.286;2023-02-05T10:37:52;95622.66;;;-3.54;66.19
69524;BME280;56723;42.694;23.286;2023-02-05T10:40:37;95624.28;;;-3.53;65.99
69524;BME280;56723;42.694;23.286;2023-02-05T10:43:44;95622.38;;;-3.47;64.20
69524;BME280;56723;42.694;23.286;2023-02-05T10:46:14;95609.88;;;-3.52;61.86
69524;BME280;56723;42.694;23.286;2023-02-05T10:48:45;95620.78;;;-3.50;62.80
69524;BME280;56723;42.694;23.286;2023-02-05T10:51:29;95610.41;;;-3.44;63.05
69524;BME280;56723;42.694;23.286;2023-02-05T10:53:59;95601.34;;;-3.50;63.20
69524;BME280;56723;42.694;23.286;2023-02-05T10:56:26;95606.13;;;-3.62;61.81
69524;BME280;56723;42.694;23.286;2023-02-05T10:58:55;95608.59;;;-3.61;62.11
69524;BME280;56723;42.694;23.286;2023-02-05T11:01:24;95607.84;;;-3.63;60.74
69524;BME280;56723;42.694;23.286;2023-02-05T11:03:59;95614.06;;;-3.51;61.69
69524;BME280;56723;42.694;23.286;2023-02-05T11:06:30;95608.13;;;-3.50;61.90
69524;BME280;56723;42.694;23.286;2023-02-05T11:08:58;95609.56;;;-3.44;61.92
69524;BME280;56723;42.694;23.286;2023-02-05T11:11:27;95626.03;;;-3.34;61.70
69524;BME280;56723;42.694;23.286;2023-02-05T11:14:03;95613.91;;;-3.28;63.44
69524;BME280;56723;42.694;23.286;2023-02-05T11:16:41;95622.88;;;-3.21;63.23
69524;BME280;56723;42.694;23.286;2023-02-05T11:19:20;95616.81;;;-3.17;62.23
69524;BME280;56723;42.694;23.286;2023-02-05T11:22:00;95620.81;;;-3.13;63.49
69524;BME280;56723;42.694;23.286;2023-02-05T11:24:28;95620.56;;;-3.06;61.68
69524;BME280;56723;42.694;23.286;2023-02-05T11:29:41;95600.16;;;-3.03;62.79
69524;BME280;56723;42.694;23.286;2023-02-05T11:34:46;95614.34;;;-2.99;59.15
69524;BME280;56723;42.694;23.286;2023-02-05T11:37:15;95594.81;;;-3.16;59.66
69524;BME280;56723;42.694;23.286;2023-02-05T11:39:44;95593.38;;;-3.22;61.07
69524;BME280;56723;42.694;23.286;2023-02-05T11:42:21;95602.31;;;-3.15;62.15
69524;BME280;56723;42.694;23.286;2023-02-05T11:44:56;95595.41;;;-2.92;60.75
69524;BME280;56723;42.694;23.286;2023-02-05T11:47:33;95601.41;;;-2.76;59.21
69524;BME280;56723;42.694;23.286;2023-02-05T11:50:03;95600.31;;;-2.70;60.29
69524;BME280;56723;42.694;23.286;2023-02-05T11:52:32;95608.69;;;-2.51;61.17
69524;BME280;56723;42.694;23.286;2023-02-05T11:55:03;95614.75;;;-2.36;61.66
69524;BME280;56723;42.694;23.286;2023-02-05T11:57:35;95612.09;;;-2.33;62.81
69524;BME280;56723;42.694;23.286;2023-02-05T12:02:36;95605.28;;;-2.33;61.39
69524;BME280;56723;42.694;23.286;2023-02-05T12:07:41;95603.16;;;-2.23;57.72
69524;BME280;56723;42.694;23.286;2023-02-05T12:13:11;95602.91;;;-2.36;56.72
69524;BME280;56723;42.694;23.286;2023-02-05T12:15:55;95590.28;;;-2.37;60.02
69524;BME280;56723;42.694;23.286;2023-02-05T12:21:18;95602.97;;;-2.20;63.58
69524;BME280;56723;42.694;23.286;2023-02-05T12:26:28;95605.91;;;-2.28;66.61
69524;BME280;56723;42.694;23.286;2023-02-05T12:45:21;95612.88;;;-3.24;78.90
69524;BME280;56723;42.694;23.286;2023-02-05T12:59:13;95610.69;;;-3.13;79.27
69524;BME280;56723;42.694;23.286;2023-02-05T13:07:52;95601.91;;;-3.43;77.73
69524;BME280;56723;42.694;23.286;2023-02-05T13:10:26;95609.25;;;-3.37;78.82
69524;BME280;56723;42.694;23.286;2023-02-05T13:13:03;95610.28;;;-3.41;78.00
69524;BME280;56723;42.694;23.286;2023-02-05T13:15:38;95615.41;;;-3.42;77.34
69524;BME280;56723;42.694;23.286;2023-02-05T13:20:49;95621.34;;;-3.43;77.79
69524;BME280;56723;42.694;23.286;2023-02-05T13:23:39;95626.41;;;-3.43;78.01
69524;BME280;56723;42.694;23.286;2023-02-05T13:26:31;95620.66;;;-3.47;79.70
69524;BME280;56723;42.694;23.286;2023-02-05T13:29:20;95621.47;;;-3.46;80.76
69524;BME280;56723;42.694;23.286;2023-02-05T13:31:51;95619.00;;;-3.48;81.15
69524;BME280;56723;42.694;23.286;2023-02-05T13:34:22;95615.38;;;-3.61;81.45
69524;BME280;56723;42.694;23.286;2023-02-05T13:43:24;95635.06;;;-3.88;83.23
69524;BME280;56723;42.694;23.286;2023-02-05T13:56:57;95644.78;;;-4.20;83.98
69524;BME280;56723;42.694;23.286;2023-02-05T14:02:00;95640.41;;;-4.36;83.78
69524;BME280;56723;42.694;23.286;2023-02-05T14:04:37;95641.28;;;-4.37;83.79
69524;BME280;56723;42.694;23.286;2023-02-05T14:07:30;95647.28;;;-4.40;84.40
69524;BME280;56723;42.694;23.286;2023-02-05T14:09:59;95637.34;;;-4.44;84.21
69524;BME280;56723;42.694;23.286;2023-02-05T14:12:32;95644.09;;;-4.45;84.51
69524;BME280;56723;42.694;23.286;2023-02-05T14:22:56;95642.72;;;-4.52;84.08
69524;BME280;56723;42.694;23.286;2023-02-05T14:30:49;95651.19;;;-4.53;84.14
69524;BME280;56723;42.694;23.286;2023-02-05T14:41:29;95655.34;;;-4.74;83.78
69524;BME280;56723;42.694;23.286;2023-02-05T14:44:03;95649.84;;;-4.83;84.22
69524;BME280;56723;42.694;23.286;2023-02-05T14:46:35;95664.41;;;-4.90;84.92
69524;BME280;56723;42.694;23.286;2023-02-05T14:49:05;95644.50;;;-4.99;85.11
69524;BME280;56723;42.694;23.286;2023-02-05T14:51:39;95657.19;;;-5.01;85.60
69524;BME280;56723;42.694;23.286;2023-02-05T14:54:15;95645.38;;;-5.00;85.59
69524;BME280;56723;42.694;23.286;2023-02-05T14:56:52;95654.34;;;-4.92;85.95
69524;BME280;56723;42.694;23.286;2023-02-05T14:59:30;95657.97;;;-4.99;86.60
69524;BME280;56723;42.694;23.286;2023-02-05T15:02:03;95653.97;;;-5.04;87.34
69524;BME280;56723;42.694;23.286;2023-02-05T15:04:54;95665.84;;;-5.06;89.36
69524;BME280;56723;42.694;23.286;2023-02-05T15:07:23;95677.81;;;-5.11;91.84
69524;BME280;56723;42.694;23.286;2023-02-05T15:10:13;95676.72;;;-5.28;94.72
69524;BME280;56723;42.694;23.286;2023-02-05T15:12:53;95686.03;;;-5.30;96.89
69524;BME280;56723;42.694;23.286;2023-02-05T15:15:30;95673.94;;;-5.45;98.88
69524;BME280;56723;42.694;23.286;2023-02-05T15:18:22;95684.06;;;-5.45;100.00
69524;BME280;56723;42.694;23.286;2023-02-05T15:20:54;95689.41;;;-5.54;100.00
69524;BME280;56723;42.694;23.286;2023-02-05T15:23:24;95694.34;;;-5.51;99.79
69524;BME280;56723;42.694;23.286;2023-02-05T15:26:03;95686.00;;;-5.53;98.94
69524;BME280;56723;42.694;23.286;2023-02-05T15:31:44;95701.47;;;-5.62;96.56
69524;BME280;56723;42.694;23.286;2023-02-05T15:34:38;95700.59;;;-5.61;96.02
69524;BME280;56723;42.694;23.286;2023-02-05T15:39:56;95693.84;;;-5.61;93.92
69524;BME280;56723;42.694;23.286;2023-02-05T15:42:35;95692.94;;;-5.58;91.89
69524;BME280;56723;42.694;23.286;2023-02-05T15:45:25;95691.47;;;-5.65;92.45
69524;BME280;56723;42.694;23.286;2023-02-05T15:48:02;95692.25;;;-5.63;91.98
69524;BME280;56723;42.694;23.286;2023-02-05T15:50:33;95702.25;;;-5.60;91.69
69524;BME280;56723;42.694;23.286;2023-02-05T15:53:01;95703.97;;;-5.61;91.87
69524;BME280;56723;42.694;23.286;2023-02-05T15:55:29;95691.44;;;-5.64;92.11
69524;BME280;56723;42.694;23.286;2023-02-05T15:58:00;95690.69;;;-5.67;92.60
69524;BME280;56723;42.694;23.286;2023-02-05T16:00:29;95691.38;;;-5.62;92.69
69524;BME280;56723;42.694;23.286;2023-02-05T16:03:01;95699.81;;;-5.63;91.91
69524;BME280;56723;42.694;23.286;2023-02-05T16:05:30;95697.25;;;-5.62;91.27
69524;BME280;56723;42.694;23.286;2023-02-05T16:07:57;95700.69;;;-5.64;91.90
69524;BME280;56723;42.694;23.286;2023-02-05T16:10:31;95714.19;;;-5.65;91.66
69524;BME280;56723;42.694;23.286;2023-02-05T16:13:13;95698.38;;;-5.70;91.67
69524;BME280;56723;42.694;23.286;2023-02-05T16:20:49;95711.56;;;-5.62;88.99
69524;BME280;56723;42.694;23.286;2023-02-05T16:23:31;95702.44;;;-5.66;88.39
69524;BME280;56723;42.694;23.286;2023-02-05T16:28:49;95699.28;;;-5.73;88.89
69524;BME280;56723;42.694;23.286;2023-02-05T16:31:20;95710.84;;;-5.66;88.85
69524;BME280;56723;42.694;23.286;2023-02-05T16:33:56;95711.56;;;-5.62;88.69
69524;BME280;56723;42.694;23.286;2023-02-05T16:36:37;95719.94;;;-5.60;87.79
69524;BME280;56723;42.694;23.286;2023-02-05T16:39:13;95711.47;;;-5.59;86.84
69524;BME280;56723;42.694;23.286;2023-02-05T16:41:42;95702.94;;;-5.57;86.62
69524;BME280;56723;42.694;23.286;2023-02-05T16:44:29;95708.97;;;-5.59;86.68
69524;BME280;56723;42.694;23.286;2023-02-05T16:49:36;95712.44;;;-5.63;87.43
69524;BME280;56723;42.694;23.286;2023-02-05T16:52:12;95710.75;;;-5.63;86.49
69524;BME280;56723;42.694;23.286;2023-02-05T16:54:50;95709.25;;;-5.68;86.90
69524;BME280;56723;42.694;23.286;2023-02-05T16:57:36;95715.16;;;-5.69;86.35
69524;BME280;56723;42.694;23.286;2023-02-05T17:00:18;95712.59;;;-5.68;85.62
69524;BME280;56723;42.694;23.286;2023-02-05T17:02:52;95714.28;;;-5.68;85.62
69524;BME280;56723;42.694;23.286;2023-02-05T17:07:57;95711.88;;;-5.71;85.54
69524;BME280;56723;42.694;23.286;2023-02-05T17:10:25;95721.97;;;-5.71;86.14
69524;BME280;56723;42.694;23.286;2023-02-05T17:13:03;95722.59;;;-5.65;85.67
69524;BME280;56723;42.694;23.286;2023-02-05T17:15:38;95704.34;;;-5.73;85.87
69524;BME280;56723;42.694;23.286;2023-02-05T17:20:49;95715.25;;;-5.72;85.31
